Time;durP1;ratioP1;P1;durP2;ratioP2;P2;SDS_P1;SDS_P2;PMS_P1;PMS_P2;Temp;Humidity;BMP_temperature;BMP_pressure;BME280_temperature;BME280_humidity;BME280_pressure;Samples;Min_cycle;Max_cycle;Signal;HPM_P1;HPM_P2
2023/01/20 00:01:02;;;;;;;2.83;1.52;;;3.20;99.90;;;;;;6342132;22;20006;-80
2023/01/20 00:03:28;;;;;;;3.50;1.83;;;3.20;99.90;;;;;;6343237;22;20003;-80
2023/01/20 00:05:54;;;;;;;2.70;1.60;;;3.30;99.90;;;;;;6343392;22;20029;-79
2023/01/20 00:08:19;;;;;;;2.53;1.65;;;3.30;99.90;;;;;;6343458;22;19999;-80
2023/01/20 00:10:45;;;;;;;1.95;1.38;;;3.30;99.90;;;;;;6342050;22;19998;-80
2023/01/20 00:13:11;;;;;;;1.92;1.35;;;3.30;99.90;;;;;;6315847;22;20358;-82
2023/01/20 00:15:36;;;;;;;1.60;1.20;;;3.30;99.90;;;;;;6342748;22;20070;-82
2023/01/20 00:18:02;;;;;;;2.92;1.50;;;3.30;99.90;;;;;;6315896;22;20327;-81
2023/01/20 00:20:28;;;;;;;2.17;1.60;;;3.30;99.90;;;;;;6342083;22;20018;-81
2023/01/20 00:22:53;;;;;;;3.20;1.75;;;3.20;99.90;;;;;;6343133;22;20089;-82
2023/01/20 00:25:19;;;;;;;3.75;1.85;;;3.10;99.90;;;;;;6343810;22;19999;-82
2023/01/20 00:27:45;;;;;;;2.30;1.52;;;3.10;99.90;;;;;;6343192;22;20081;-82
2023/01/20 00:30:12;;;;;;;2.97;1.58;;;3.00;99.90;;;;;;6315121;22;20003;-82
2023/01/20 00:32:43;;;;;;;3.05;1.58;;;3.00;99.90;;;;;;6314674;22;20029;-81
2023/01/20 00:35:09;;;;;;;2.17;1.45;;;3.00;99.90;;;;;;6315335;22;20030;-81
2023/01/20 00:37:35;;;;;;;2.80;1.55;;;3.10;99.90;;;;;;6343117;22;19995;-81
2023/01/20 00:40:01;;;;;;;1.95;1.60;;;3.10;99.90;;;;;;6342682;22;20410;-80
2023/01/20 00:42:26;;;;;;;2.75;1.67;;;3.10;99.90;;;;;;6342065;22;20002;-79
2023/01/20 00:44:52;;;;;;;3.28;1.88;;;3.00;99.90;;;;;;6342651;22;20045;-81
2023/01/20 00:47:19;;;;;;;3.70;2.00;;;2.90;99.90;;;;;;6341392;22;20007;-80
2023/01/20 00:49:46;;;;;;;3.47;1.90;;;2.90;99.90;;;;;;6342742;22;20336;-80
2023/01/20 00:52:11;;;;;;;3.03;1.98;;;2.80;99.90;;;;;;6342114;22;19999;-81
2023/01/20 00:54:37;;;;;;;2.20;1.83;;;2.80;99.90;;;;;;6342728;22;19995;-80
2023/01/20 00:57:03;;;;;;;2.30;1.90;;;2.80;99.90;;;;;;6342835;22;20010;-80
2023/01/20 00:59:28;;;;;;;2.20;1.50;;;2.70;99.90;;;;;;6342746;22;20041;-81
2023/01/20 01:01:54;;;;;;;3.03;1.80;;;2.70;99.90;;;;;;6342497;22;20305;-81
2023/01/20 01:04:20;;;;;;;4.32;2.03;;;2.80;99.90;;;;;;6314440;22;20002;-81
2023/01/20 01:06:45;;;;;;;3.38;1.80;;;2.80;99.90;;;;;;6315424;22;20005;-81
2023/01/20 01:09:11;;;;;;;2.67;1.63;;;2.80;99.90;;;;;;6342576;22;20022;-82
2023/01/20 01:11:37;;;;;;;2.42;1.50;;;2.70;99.90;;;;;;6342465;22;19995;-82
2023/01/20 01:14:02;;;;;;;1.83;1.50;;;2.80;99.90;;;;;;6341781;22;20001;-82
2023/01/20 01:16:28;;;;;;;3.10;1.58;;;2.80;99.90;;;;;;6314968;22;20010;-81
2023/01/20 01:18:54;;;;;;;3.17;2.03;;;2.80;99.90;;;;;;6342833;22;19995;-82
2023/01/20 01:21:20;;;;;;;2.83;1.77;;;2.80;99.90;;;;;;6314877;22;20374;-82
2023/01/20 01:23:46;;;;;;;3.83;1.70;;;2.80;99.90;;;;;;6314195;22;20328;-83
2023/01/20 01:26:12;;;;;;;2.70;1.58;;;2.80;99.90;;;;;;6342372;22;20010;-83
2023/01/20 01:28:39;;;;;;;3.30;1.60;;;2.80;99.90;;;;;;6342837;22;20078;-83
2023/01/20 01:31:06;;;;;;;2.47;1.60;;;2.80;99.90;;;;;;6341915;22;20010;-83
2023/01/20 01:33:33;;;;;;;2.15;1.60;;;2.80;99.90;;;;;;6342605;22;19994;-83
2023/01/20 01:36:00;;;;;;;3.00;1.92;;;2.70;99.90;;;;;;6342240;22;19991;-80
2023/01/20 01:38:26;;;;;;;2.42;1.48;;;2.70;99.90;;;;;;6342680;22;19995;-81
2023/01/20 01:40:54;;;;;;;2.15;1.30;;;2.70;99.90;;;;;;6342505;22;19999;-81
2023/01/20 01:43:29;;;;;;;2.20;1.40;;;2.80;99.90;;;;;;6342045;22;20003;-81
2023/01/20 01:45:55;;;;;;;2.10;1.52;;;2.80;99.90;;;;;;6341756;22;20007;-79
2023/01/20 01:48:26;;;;;;;2.60;1.65;;;2.90;99.90;;;;;;6317020;22;20006;-79
2023/01/20 01:51:03;;;;;;;3.13;1.52;;;2.80;99.90;;;;;;6317806;22;20026;-80
2023/01/20 01:53:32;;;;;;;2.65;1.58;;;2.70;99.90;;;;;;6345678;22;20019;-80
2023/01/20 01:56:01;;;;;;;2.28;1.50;;;2.70;99.90;;;;;;6317445;22;20111;-80
2023/01/20 01:58:31;;;;;;;2.40;1.40;;;2.70;99.90;;;;;;6345095;22;20017;-81
2023/01/20 02:00:57;;;;;;;1.65;1.20;;;2.80;99.90;;;;;;6317949;22;20374;-82
2023/01/20 02:03:23;;;;;;;3.40;1.60;;;2.80;99.90;;;;;;6345482;22;20007;-82
2023/01/20 02:05:51;;;;;;;2.35;1.60;;;2.70;99.90;;;;;;6317846;22;20014;-82
2023/01/20 02:08:18;;;;;;;3.30;1.60;;;2.70;99.90;;;;;;6345570;22;20491;-82
2023/01/20 02:10:43;;;;;;;2.05;1.40;;;2.70;99.90;;;;;;6345099;22;19999;-82
2023/01/20 02:13:10;;;;;;;2.50;1.35;;;2.70;99.90;;;;;;6345287;22;20461;-82
2023/01/20 02:15:51;;;;;;;3.13;1.70;;;2.60;99.90;;;;;;6345184;22;20074;-82
2023/01/20 02:18:27;;;;;;;2.15;1.30;;;2.60;99.90;;;;;;6345138;22;20066;-82
2023/01/20 02:21:11;;;;;;;3.70;1.60;;;2.60;99.90;;;;;;6345150;22;19998;-82
2023/01/20 02:23:40;;;;;;;3.50;2.00;;;2.70;99.90;;;;;;6345526;22;20030;-81
2023/01/20 02:26:31;;;;;;;2.47;1.60;;;2.60;99.90;;;;;;6345356;22;20026;-81
2023/01/20 02:29:30;;;;;;;1.98;1.23;;;2.60;99.90;;;;;;6345084;22;20009;-81
2023/01/20 02:32:14;;;;;;;2.45;1.40;;;2.60;99.90;;;;;;6317807;22;20500;-82
2023/01/20 02:34:51;;;;;;;;;;;2.50;99.90;;;;;;6346102;22;20005;-82
2023/01/20 02:37:22;;;;;;;3.75;1.55;;;2.50;99.90;;;;;;6345418;22;19981;-82
2023/01/20 02:40:15;;;;;;;1.98;1.17;;;2.50;99.90;;;;;;6345237;22;20030;-82
2023/01/20 02:42:49;;;;;;;2.90;1.40;;;2.50;99.90;;;;;;6317477;22;20007;-82
2023/01/20 02:45:41;;;;;;;1.48;1.00;;;2.60;99.90;;;;;;6344931;22;19999;-82
2023/01/20 02:48:28;;;;;;;3.13;1.45;;;2.50;99.90;;;;;;6343980;22;20038;-82
2023/01/20 02:51:06;;;;;;;2.10;1.27;;;2.50;99.90;;;;;;6345028;22;20302;-82
2023/01/20 02:53:42;;;;;;;1.75;1.23;;;2.50;99.90;;;;;;6317803;22;20044;-82
2023/01/20 02:56:10;;;;;;;3.40;1.52;;;2.40;99.90;;;;;;6345116;22;20022;-81
2023/01/20 02:58:47;;;;;;;2.17;1.40;;;2.40;99.90;;;;;;6344218;22;20014;-81
2023/01/20 03:01:21;;;;;;;2.05;1.63;;;2.40;99.90;;;;;;6344937;22;19999;-81
2023/01/20 03:03:51;;;;;;;2.53;1.27;;;2.40;99.90;;;;;;6344856;22;20085;-81
2023/01/20 03:06:20;;;;;;;1.80;1.30;;;2.40;99.90;;;;;;6344680;22;20148;-81
2023/01/20 03:08:49;;;;;;;2.90;1.67;;;2.40;99.90;;;;;;6344746;22;20006;-81
2023/01/20 03:11:15;;;;;;;2.88;1.40;;;2.30;99.90;;;;;;6317219;22;20006;-81
2023/01/20 03:13:43;;;;;;;2.50;1.30;;;2.40;99.90;;;;;;6344580;22;19998;-80
2023/01/20 03:16:19;;;;;;;3.10;1.65;;;2.40;99.90;;;;;;6344550;22;20309;-79
2023/01/20 03:18:45;;;;;;;2.75;1.80;;;2.40;99.90;;;;;;6317254;22;20090;-79
2023/01/20 03:21:12;;;;;;;4.40;2.13;;;2.50;99.90;;;;;;6344354;22;20003;-79
2023/01/20 03:23:45;;;;;;;4.53;1.98;;;2.50;99.90;;;;;;6316930;22;20428;-79
2023/01/20 03:26:12;;;;;;;;;;;2.50;99.90;;;;;;6318159;22;20007;-79
2023/01/20 03:28:39;;;;;;;2.70;1.55;;;2.50;99.90;;;;;;6344697;22;19905;-80
2023/01/20 03:31:13;;;;;;;3.72;1.70;;;2.50;99.90;;;;;;6344228;22;20432;-80
2023/01/20 03:33:39;;;;;;;3.15;1.73;;;2.50;99.90;;;;;;6344446;22;20002;-80
2023/01/20 03:36:05;;;;;;;2.70;1.70;;;2.50;99.90;;;;;;6344668;22;19994;-80
2023/01/20 03:38:31;;;;;;;3.95;1.95;;;2.50;99.90;;;;;;6344039;22;20045;-80
2023/01/20 03:41:12;;;;;;;5.38;2.22;;;2.60;99.90;;;;;;6344629;22;19998;-80
2023/01/20 03:43:47;;;;;;;3.28;2.17;;;2.50;99.90;;;;;;6344505;22;20024;-78
2023/01/20 03:46:26;;;;;;;3.55;2.00;;;2.60;99.90;;;;;;6344448;22;20428;-80
2023/01/20 03:48:57;;;;;;;3.15;1.60;;;2.60;99.90;;;;;;6344326;22;20512;-79
2023/01/20 03:51:34;;;;;;;3.08;1.70;;;2.50;99.90;;;;;;6344216;22;19999;-81
2023/01/20 03:54:07;;;;;;;3.60;1.83;;;2.50;99.90;;;;;;6344574;22;19995;-80
2023/01/20 03:56:42;;;;;;;1.98;1.60;;;2.50;99.90;;;;;;6344333;22;19999;-79
2023/01/20 03:59:10;;;;;;;2.40;1.30;;;2.50;99.90;;;;;;6344145;22;20344;-79
2023/01/20 04:01:42;;;;;;;3.30;1.20;;;2.50;99.90;;;;;;6344386;22;20443;-79
2023/01/20 04:04:11;;;;;;;2.47;1.30;;;2.60;99.90;;;;;;6317165;22;20327;-80
2023/01/20 04:06:40;;;;;;;2.03;1.30;;;2.60;99.90;;;;;;6344488;22;20022;-80
2023/01/20 04:09:14;;;;;;;1.70;1.20;;;2.70;99.90;;;;;;6344092;22;20003;-82
2023/01/20 04:11:40;;;;;;;3.63;1.45;;;2.70;99.90;;;;;;6344230;22;19999;-82
2023/01/20 04:14:08;;;;;;;1.55;1.10;;;2.80;99.90;;;;;;6344091;22;19995;-82
2023/01/20 04:16:33;;;;;;;2.60;1.50;;;2.80;99.90;;;;;;6344414;22;20087;-82
2023/01/20 04:18:59;;;;;;;2.50;1.30;;;2.80;99.90;;;;;;6344411;22;19994;-82
2023/01/20 04:21:34;;;;;;;3.17;1.40;;;2.80;99.90;;;;;;6344430;22;20485;-82
2023/01/20 04:24:25;;;;;;;1.73;1.40;;;2.80;99.90;;;;;;6344218;22;20048;-83
2023/01/20 04:26:51;;;;;;;2.13;1.40;;;2.70;99.90;;;;;;6344205;22;20313;-82
2023/01/20 04:29:16;;;;;;;3.28;1.42;;;2.70;99.90;;;;;;6343918;22;20010;-82
2023/01/20 04:31:42;;;;;;;3.13;1.70;;;2.70;99.90;;;;;;6343893;22;20013;-82
2023/01/20 04:34:12;;;;;;;2.15;1.20;;;2.60;99.90;;;;;;6344131;22;20022;-83
2023/01/20 04:36:38;;;;;;;2.00;1.30;;;2.60;99.90;;;;;;6316387;22;20055;-83
2023/01/20 04:39:03;;;;;;;3.35;1.58;;;2.60;99.90;;;;;;6344043;22;20423;-82
2023/01/20 04:41:29;;;;;;;1.88;1.17;;;2.60;99.90;;;;;;6343997;22;20081;-83
2023/01/20 04:43:54;;;;;;;2.13;1.00;;;2.60;99.90;;;;;;6316024;22;20006;-82
2023/01/20 04:46:20;;;;;;;2.13;0.82;;;2.70;99.90;;;;;;6344087;22;20443;-82
2023/01/20 04:48:46;;;;;;;3.15;1.23;;;2.70;99.90;;;;;;6313373;22;20006;-83
2023/01/20 04:51:12;;;;;;;2.70;1.48;;;2.70;99.90;;;;;;6315310;22;20006;-83
2023/01/20 04:53:38;;;;;;;2.53;1.17;;;2.60;99.90;;;;;;6315766;22;19998;-81
2023/01/20 04:56:04;;;;;;;2.42;1.00;;;2.60;99.90;;;;;;6343981;22;20416;-81
2023/01/20 04:58:29;;;;;;;4.45;1.38;;;2.60;99.90;;;;;;6342644;22;20013;-81
2023/01/20 05:00:55;;;;;;;2.22;1.52;;;2.60;99.90;;;;;;6316426;22;19999;-82
2023/01/20 05:03:21;;;;;;;2.35;1.20;;;2.60;99.90;;;;;;6343659;22;19999;-81
2023/01/20 05:05:53;;;;;;;2.22;1.30;;;2.60;99.90;;;;;;6316484;22;20003;-82
2023/01/20 05:08:19;;;;;;;2.97;1.17;;;2.70;99.90;;;;;;6344004;22;20030;-82
2023/01/20 05:10:45;;;;;;;2.20;1.25;;;2.70;99.90;;;;;;6344025;22;20252;-82
2023/01/20 05:13:11;;;;;;;1.77;1.10;;;2.70;99.90;;;;;;6343691;22;20026;-81
2023/01/20 05:15:38;;;;;;;1.75;0.88;;;2.70;99.90;;;;;;6343378;22;20048;-81
2023/01/20 05:18:03;;;;;;;1.70;0.90;;;2.70;99.90;;;;;;6343616;22;19995;-81
2023/01/20 05:20:29;;;;;;;2.60;0.95;;;2.70;99.90;;;;;;6343409;22;20006;-81
2023/01/20 05:22:55;;;;;;;1.25;0.82;;;2.70;99.90;;;;;;6343924;22;20003;-83
2023/01/20 05:25:20;;;;;;;1.55;1.00;;;2.70;99.90;;;;;;6315879;22;20041;-82
2023/01/20 05:27:46;;;;;;;2.08;1.10;;;2.70;99.90;;;;;;6316030;22;20007;-82
2023/01/20 05:30:12;;;;;;;1.75;1.15;;;2.60;99.90;;;;;;6315471;22;20089;-82
2023/01/20 05:32:37;;;;;;;1.67;1.05;;;2.60;99.90;;;;;;6315941;22;20455;-82
2023/01/20 05:35:04;;;;;;;2.10;1.10;;;2.60;99.90;;;;;;6343912;22;20002;-82
2023/01/20 05:37:29;;;;;;;1.88;0.88;;;2.50;99.90;;;;;;6344018;22;20481;-83
2023/01/20 05:39:55;;;;;;;1.95;0.93;;;2.50;99.90;;;;;;6343559;22;20003;-82
2023/01/20 05:42:21;;;;;;;2.30;1.15;;;2.50;99.90;;;;;;6315720;22;20006;-82
2023/01/20 05:44:47;;;;;;;2.42;1.50;;;2.50;99.90;;;;;;6315851;22;20416;-82
2023/01/20 05:47:13;;;;;;;1.70;1.35;;;2.40;99.90;;;;;;6343489;22;20060;-82
2023/01/20 05:49:39;;;;;;;3.17;1.50;;;2.40;99.90;;;;;;6315810;22;20007;-82
2023/01/20 05:52:05;;;;;;;3.03;1.45;;;2.30;99.90;;;;;;6343843;22;20062;-81
2023/01/20 05:54:30;;;;;;;2.30;1.52;;;2.30;99.90;;;;;;6343669;22;19998;-83
2023/01/20 05:56:56;;;;;;;2.47;1.40;;;2.30;99.90;;;;;;6344006;22;20003;-83
2023/01/20 05:59:22;;;;;;;4.35;1.70;;;2.30;99.90;;;;;;6315526;22;20015;-82
2023/01/20 06:01:48;;;;;;;2.00;1.35;;;2.30;99.90;;;;;;6316017;22;20074;-84
2023/01/20 06:04:14;;;;;;;2.28;1.42;;;2.30;99.90;;;;;;6343614;22;19994;-85
2023/01/20 06:06:39;;;;;;;2.58;1.50;;;2.30;99.90;;;;;;6343335;22;20074;-84
2023/01/20 06:09:05;;;;;;;1.60;1.15;;;2.30;99.90;;;;;;6315686;22;20005;-84
2023/01/20 06:11:49;;;;;;;;;;;2.30;99.90;;;;;;6243967;22;20030;-84
2023/01/20 06:14:15;;;;;;;1.83;1.10;;;2.30;99.90;;;;;;6341678;22;19981;-85
2023/01/20 06:16:41;;;;;;;1.45;1.08;;;2.30;99.90;;;;;;6313693;22;20014;-84
2023/01/20 06:19:06;;;;;;;1.52;1.10;;;2.40;99.90;;;;;;6314401;22;20011;-85
2023/01/20 06:21:32;;;;;;;1.55;0.98;;;2.40;99.90;;;;;;6314528;22;20021;-85
2023/01/20 06:23:58;;;;;;;1.65;1.20;;;2.40;99.90;;;;;;6343688;22;19994;-86
2023/01/20 06:26:23;;;;;;;1.13;1.00;;;2.40;99.90;;;;;;6343926;22;19994;-86
2023/01/20 06:28:49;;;;;;;1.20;1.10;;;2.30;99.90;;;;;;6343206;22;20003;-83
2023/01/20 06:31:15;;;;;;;1.65;1.10;;;2.30;99.90;;;;;;6343367;22;19999;-82
2023/01/20 06:33:42;;;;;;;2.22;1.20;;;2.30;99.90;;;;;;6344148;22;19999;-82
2023/01/20 06:36:09;;;;;;;1.98;1.50;;;2.30;99.90;;;;;;6345366;22;19994;-82
2023/01/20 06:38:35;;;;;;;3.85;1.67;;;2.20;99.90;;;;;;6345153;22;19998;-82
2023/01/20 06:41:04;;;;;;;2.30;1.88;;;2.20;99.90;;;;;;6317796;22;20063;-82
2023/01/20 06:43:32;;;;;;;2.83;1.60;;;2.30;99.90;;;;;;6344863;22;20006;-82
2023/01/20 06:46:06;;;;;;;2.85;1.90;;;2.30;99.90;;;;;;6317553;22;20003;-81
2023/01/20 06:48:33;;;;;;;3.05;1.50;;;2.30;99.90;;;;;;6344862;22;19999;-81
2023/01/20 06:51:02;;;;;;;2.83;1.67;;;2.30;99.90;;;;;;6345102;22;20003;-84
2023/01/20 06:53:28;;;;;;;2.72;1.30;;;2.30;99.90;;;;;;6345615;22;19999;-84
2023/01/20 06:55:58;;;;;;;3.40;1.23;;;2.40;99.90;;;;;;6345136;22;20006;-83
2023/01/20 06:58:26;;;;;;;2.28;1.10;;;2.50;99.90;;;;;;6344571;22;20476;-81
2023/01/20 07:00:52;;;;;;;1.67;1.10;;;2.50;99.90;;;;;;6343876;22;20075;-82
2023/01/20 07:03:18;;;;;;;1.85;1.00;;;2.50;99.90;;;;;;6343982;22;19998;-83
2023/01/20 07:05:56;;;;;;;1.88;1.13;;;2.50;99.90;;;;;;6341003;22;20449;-82
2023/01/20 07:08:22;;;;;;;1.75;1.00;;;2.50;99.90;;;;;;6315832;22;20003;-81
2023/01/20 07:10:47;;;;;;;1.67;1.00;;;2.60;99.90;;;;;;6315025;22;20451;-82
2023/01/20 07:13:13;;;;;;;2.17;1.00;;;2.70;99.90;;;;;;6342552;22;19995;-82
2023/01/20 07:15:38;;;;;;;1.85;1.05;;;2.70;99.90;;;;;;6316359;22;20001;-81
2023/01/20 07:18:04;;;;;;;1.15;1.02;;;2.70;99.90;;;;;;6344619;22;20002;-83
2023/01/20 07:20:30;;;;;;;2.22;1.20;;;2.70;99.90;;;;;;6344227;22;19999;-81
2023/01/20 07:22:58;;;;;;;1.80;1.30;;;2.70;99.90;;;;;;6344613;22;20336;-79
2023/01/20 07:25:24;;;;;;;1.60;0.98;;;2.70;99.90;;;;;;6344366;22;20025;-79
2023/01/20 07:27:50;;;;;;;1.23;0.90;;;2.80;99.90;;;;;;6344372;22;20077;-81
2023/01/20 07:30:16;;;;;;;1.42;0.82;;;2.80;99.90;;;;;;6343849;22;19998;-80
2023/01/20 07:32:41;;;;;;;1.35;0.90;;;2.80;99.90;;;;;;6343122;22;20077;-75
2023/01/20 07:35:07;;;;;;;1.65;1.27;;;2.80;99.90;;;;;;6342953;22;20017;-74
2023/01/20 07:37:34;;;;;;;2.03;1.60;;;2.80;99.90;;;;;;6315553;22;20006;-74
2023/01/20 07:40:00;;;;;;;2.00;1.70;;;2.80;99.90;;;;;;6344159;22;20003;-74
2023/01/20 07:42:25;;;;;;;2.13;1.52;;;2.80;99.90;;;;;;6344619;22;19998;-74
2023/01/20 07:44:51;;;;;;;2.05;1.40;;;2.90;99.90;;;;;;6342530;22;20056;-73
2023/01/20 07:47:16;;;;;;;2.22;1.48;;;2.90;99.90;;;;;;6342879;22;20034;-73
2023/01/20 07:49:42;;;;;;;2.95;1.52;;;2.90;99.90;;;;;;6344418;22;19999;-74
2023/01/20 07:52:08;;;;;;;2.08;1.45;;;2.90;99.90;;;;;;6343306;22;19998;-73
2023/01/20 07:54:33;;;;;;;2.08;1.30;;;2.80;99.90;;;;;;6342638;22;20002;-73
2023/01/20 07:56:59;;;;;;;2.38;1.20;;;2.80;99.90;;;;;;6342754;22;19995;-73
2023/01/20 07:59:25;;;;;;;2.70;1.50;;;2.80;99.90;;;;;;6315553;22;20498;-74
2023/01/20 08:01:51;;;;;;;2.13;1.40;;;2.80;99.90;;;;;;6344389;22;20041;-77
2023/01/20 08:04:17;;;;;;;2.70;1.45;;;2.80;99.90;;;;;;6344037;22;19999;-76
2023/01/20 08:06:42;;;;;;;2.20;1.50;;;2.80;99.90;;;;;;6344514;22;20022;-75
2023/01/20 08:09:11;;;;;;;1.73;1.23;;;2.80;99.90;;;;;;6344336;22;19998;-76
2023/01/20 08:11:37;;;;;;;3.03;1.92;;;2.80;99.90;;;;;;6316522;22;20351;-76
2023/01/20 08:14:03;;;;;;;1.88;1.08;;;2.80;99.90;;;;;;6343882;22;20002;-76
2023/01/20 08:16:29;;;;;;;2.28;1.40;;;2.80;99.90;;;;;;6314982;22;20439;-76
2023/01/20 08:18:54;;;;;;;1.95;1.25;;;2.80;99.90;;;;;;6313286;22;20006;-76
2023/01/20 08:21:29;;;;;;;1.83;1.50;;;2.80;99.90;;;;;;6314869;22;20003;-76
2023/01/20 08:23:56;;;;;;;3.25;1.60;;;2.80;99.90;;;;;;6314966;22;20043;-76
2023/01/20 08:26:26;;;;;;;2.25;1.17;;;2.80;99.90;;;;;;6343570;22;20048;-76
2023/01/20 08:28:53;;;;;;;2.08;1.50;;;2.80;99.90;;;;;;6316016;22;20009;-76
2023/01/20 08:31:21;;;;;;;4.07;2.05;;;2.70;99.90;;;;;;6343847;22;20495;-76
2023/01/20 08:33:50;;;;;;;2.00;1.42;;;2.70;99.90;;;;;;6340679;22;19999;-76
2023/01/20 08:36:19;;;;;;;2.25;1.30;;;2.70;99.90;;;;;;6313111;22;20002;-76
2023/01/20 08:38:45;;;;;;;2.08;1.38;;;2.70;99.90;;;;;;6341850;22;20002;-75
2023/01/20 08:41:14;;;;;;;4.35;2.05;;;2.80;99.90;;;;;;6316384;22;20014;-76
2023/01/20 08:43:40;;;;;;;2.85;1.60;;;2.70;99.90;;;;;;6315307;22;20022;-77
2023/01/20 08:46:08;;;;;;;4.05;2.20;;;2.70;99.90;;;;;;6342533;22;20462;-76
2023/01/20 08:48:35;;;;;;;3.45;2.22;;;2.70;99.90;;;;;;6315159;22;20007;-76
2023/01/20 08:51:06;;;;;;;4.30;2.40;;;2.70;99.90;;;;;;6315269;22;20003;-75
2023/01/20 08:53:32;;;;;;;4.85;2.30;;;2.70;99.90;;;;;;6344180;22;19999;-76
2023/01/20 08:55:59;;;;;;;4.57;2.50;;;2.80;99.90;;;;;;6342558;22;19995;-75
2023/01/20 08:58:26;;;;;;;4.10;2.22;;;2.80;99.90;;;;;;6315653;22;20266;-75
2023/01/20 09:00:52;;;;;;;4.07;2.08;;;2.80;99.90;;;;;;6343675;22;20435;-76
2023/01/20 09:03:18;;;;;;;3.08;2.33;;;2.80;99.90;;;;;;6343907;22;20444;-76
2023/01/20 09:05:44;;;;;;;3.83;2.05;;;2.90;99.90;;;;;;6316449;22;20006;-76
2023/01/20 09:08:09;;;;;;;4.35;2.80;;;2.90;99.90;;;;;;6316154;22;20045;-76
2023/01/20 09:10:35;;;;;;;4.05;2.17;;;2.90;99.90;;;;;;6343838;22;20416;-75
2023/01/20 09:13:01;;;;;;;3.63;2.53;;;3.10;99.90;;;;;;6343254;22;20005;-76
2023/01/20 09:15:26;;;;;;;3.40;2.38;;;3.10;99.90;;;;;;6343693;22;19995;-76
2023/01/20 09:17:52;;;;;;;4.38;2.42;;;3.20;99.90;;;;;;6343652;22;19994;-76
2023/01/20 09:20:18;;;;;;;2.90;2.13;;;3.20;99.90;;;;;;6344036;22;20002;-76
2023/01/20 09:22:44;;;;;;;3.25;2.40;;;3.30;99.90;;;;;;6343394;22;20009;-76
2023/01/20 09:25:10;;;;;;;4.25;2.20;;;3.40;99.90;;;;;;6343720;22;20003;-75
2023/01/20 09:27:36;;;;;;;3.22;2.22;;;3.60;99.90;;;;;;6343818;22;20378;-76
2023/01/20 09:30:02;;;;;;;2.60;1.70;;;3.70;99.90;;;;;;6343539;22;20808;-76
2023/01/20 09:32:28;;;;;;;4.00;2.25;;;3.70;99.90;;;;;;6343433;22;20038;-76
2023/01/20 09:34:55;;;;;;;3.85;2.17;;;3.80;99.90;;;;;;6315954;22;19999;-76
2023/01/20 09:46:20;;;;;;;4.03;2.30;;;3.90;99.90;;;;;;6343542;22;20455;-76
2023/01/20 09:55:18;;;;;;;3.47;1.90;;;4.00;99.90;;;;;;6343475;22;20056;-75
2023/01/20 09:57:52;;;;;;;3.33;1.80;;;4.00;99.90;;;;;;6320314;22;20463;-76
2023/01/20 10:00:21;;;;;;;4.22;2.13;;;4.00;99.90;;;;;;6315958;22;20010;-76
2023/01/20 10:02:51;;;;;;;4.15;2.22;;;4.00;99.90;;;;;;6315379;22;20003;-76
2023/01/20 10:05:31;;;;;;;3.63;2.38;;;4.00;99.90;;;;;;6343533;22;20085;-76
2023/01/20 10:08:35;;;;;;;2.35;1.85;;;4.00;99.90;;;;;;6345183;22;20045;-75
2023/01/20 10:11:08;;;;;;;2.72;2.00;;;4.10;99.90;;;;;;6293856;22;20062;-76
2023/01/20 10:13:45;;;;;;;;;;;4.10;99.90;;;;;;6317835;22;19999;-75
2023/01/20 10:16:22;;;;;;;2.83;1.73;;;4.20;99.90;;;;;;6317539;22;19898;-76
2023/01/20 10:18:59;;;;;;;2.92;1.95;;;4.20;99.90;;;;;;6317653;22;20003;-76
2023/01/20 10:21:32;;;;;;;2.85;1.55;;;4.20;99.90;;;;;;6317720;22;20014;-76
2023/01/20 10:24:09;;;;;;;2.47;1.63;;;4.20;99.90;;;;;;6345477;22;20060;-76
2023/01/20 10:26:52;;;;;;;1.85;1.33;;;4.20;99.90;;;;;;6345231;22;19999;-75
2023/01/20 10:29:27;;;;;;;;;;;4.30;99.90;;;;;;6317714;22;20002;-75
2023/01/20 10:31:59;;;;;;;2.13;1.48;;;4.30;99.90;;;;;;6345310;22;19910;-75
2023/01/20 10:34:52;;;;;;;2.58;1.88;;;4.40;99.90;;;;;;6317647;22;20368;-75
2023/01/20 10:37:18;;;;;;;3.85;2.03;;;4.40;99.90;;;;;;6311448;22;20038;-76
2023/01/20 10:40:07;;;;;;;3.25;1.70;;;4.40;99.90;;;;;;6317411;22;19999;-76
2023/01/20 10:42:33;;;;;;;2.28;1.55;;;4.40;99.90;;;;;;6345219;22;20516;-76
2023/01/20 10:44:59;;;;;;;2.65;1.55;;;4.50;99.90;;;;;;6317192;22;20072;-76
2023/01/20 10:47:42;;;;;;;3.25;2.13;;;4.50;99.90;;;;;;6344870;22;20371;-75
2023/01/20 10:50:34;;;;;;;2.72;1.73;;;4.50;99.90;;;;;;6344976;22;20313;-76
2023/01/20 10:53:07;;;;;;;2.95;1.60;;;4.50;99.90;;;;;;6317997;22;20074;-76
2023/01/20 10:55:50;;;;;;;3.08;1.52;;;4.50;99.90;;;;;;6317429;22;20017;-76
2023/01/20 10:58:22;;;;;;;3.40;2.03;;;4.60;99.90;;;;;;6317206;22;20045;-76
2023/01/20 11:00:48;;;;;;;2.70;1.60;;;4.60;99.90;;;;;;6345256;22;20378;-76
2023/01/20 11:03:18;;;;;;;3.13;1.77;;;4.50;99.90;;;;;;6344638;22;20003;-76
2023/01/20 11:05:46;;;;;;;2.90;1.83;;;4.50;99.90;;;;;;6317465;22;20003;-76
2023/01/20 11:08:26;;;;;;;2.38;1.90;;;4.40;99.90;;;;;;6344960;22;20014;-75
2023/01/20 11:10:55;;;;;;;3.63;2.20;;;4.40;99.90;;;;;;6344926;22;20003;-75
2023/01/20 11:13:21;;;;;;;2.50;1.60;;;4.40;99.90;;;;;;6344739;22;20007;-76
2023/01/20 11:15:50;;;;;;;2.58;1.70;;;4.40;99.90;;;;;;6344673;22;20029;-76
2023/01/20 11:18:16;;;;;;;2.67;1.40;;;4.40;99.90;;;;;;6344836;22;19995;-76
2023/01/20 11:20:46;;;;;;;2.10;1.40;;;4.40;99.90;;;;;;6317242;22;20009;-76
2023/01/20 11:23:37;;;;;;;1.83;1.42;;;4.50;99.90;;;;;;6317025;22;20461;-76
2023/01/20 11:26:35;;;;;;;2.53;1.70;;;4.50;99.90;;;;;;6344628;22;19999;-71
2023/01/20 11:29:10;;;;;;;1.50;1.33;;;4.60;99.90;;;;;;6316203;22;20007;-78
2023/01/20 11:31:41;;;;;;;2.78;1.42;;;4.70;99.90;;;;;;6344031;22;20007;-80
2023/01/20 11:34:25;;;;;;;1.75;1.20;;;4.70;99.90;;;;;;6316445;22;20129;-74
2023/01/20 11:37:17;;;;;;;2.35;1.50;;;4.70;99.90;;;;;;6344538;22;20068;-75
2023/01/20 11:39:49;;;;;;;2.40;1.58;;;4.80;99.90;;;;;;6344414;22;19995;-75
2023/01/20 11:42:42;;;;;;;2.50;1.67;;;4.80;99.90;;;;;;6316897;22;20089;-74
2023/01/20 11:45:27;;;;;;;2.50;1.50;;;4.80;99.90;;;;;;6316582;22;19999;-75
2023/01/20 11:48:14;;;;;;;1.98;1.40;;;4.80;99.90;;;;;;6344698;22;20009;-76
2023/01/20 11:50:44;;;;;;;2.65;1.33;;;4.80;99.90;;;;;;6344560;22;20009;-74
2023/01/20 11:53:16;;;;;;;2.13;1.60;;;4.90;99.90;;;;;;6344519;22;20078;-74
2023/01/20 11:56:14;;;;;;;1.90;1.45;;;4.90;99.90;;;;;;6344650;22;20002;-73
2023/01/20 11:59:00;;;;;;;2.20;1.20;;;4.90;99.90;;;;;;6315201;22;20011;-72
2023/01/20 12:01:49;;;;;;;2.53;1.10;;;5.00;99.90;;;;;;6343819;22;20081;-76
2023/01/20 12:04:21;;;;;;;1.98;1.30;;;5.00;99.90;;;;;;6344321;22;20072;-74
2023/01/20 12:06:57;;;;;;;1.80;1.20;;;5.10;99.90;;;;;;6316648;22;20507;-73
2023/01/20 12:09:29;;;;;;;1.85;1.45;;;5.20;99.90;;;;;;6316426;22;20005;-74
2023/01/20 12:12:20;;;;;;;2.05;1.30;;;5.30;99.90;;;;;;6344193;22;20003;-73
2023/01/20 12:14:56;;;;;;;2.15;1.38;;;5.40;99.90;;;;;;6327139;22;20424;-75
2023/01/20 12:17:28;;;;;;;2.47;1.27;;;5.50;99.90;;;;;;6342924;22;20002;-73
2023/01/20 12:20:14;;;;;;;1.73;1.40;;;5.60;99.90;;;;;;6343023;22;20331;-73
2023/01/20 12:23:03;;;;;;;2.88;1.58;;;5.70;99.90;;;;;;6342947;22;20002;-74
2023/01/20 12:25:42;;;;;;;1.92;1.40;;;5.70;99.90;;;;;;6279355;22;20003;-74
2023/01/20 12:28:24;;;;;;;3.88;1.80;;;5.70;99.90;;;;;;6343042;22;19999;-74
2023/01/20 12:30:53;;;;;;;3.20;1.67;;;5.70;99.90;;;;;;6342242;22;20007;-74
2023/01/20 12:33:42;;;;;;;2.33;1.67;;;5.70;99.90;;;;;;6342635;22;20031;-74
2023/01/20 12:36:18;;;;;;;3.40;1.85;;;5.70;99.90;;;;;;6314826;22;20047;-74
2023/01/20 12:38:58;;;;;;;3.72;1.95;;;5.70;99.90;;;;;;6342252;22;20028;-73
2023/01/20 12:41:35;;;;;;;1.73;1.50;;;5.70;99.90;;;;;;6343504;22;20010;-73
2023/01/20 12:44:16;;;;;;;3.85;1.83;;;5.70;99.90;;;;;;6315248;22;20203;-73
2023/01/20 12:47:19;;;;;;;2.95;1.50;;;5.70;99.90;;;;;;6315810;22;20011;-73
2023/01/20 12:50:05;;;;;;;2.80;2.05;;;5.70;99.90;;;;;;6342907;22;20156;-77
2023/01/20 12:52:42;;;;;;;3.17;1.73;;;5.70;99.90;;;;;;6344026;22;20074;-76
2023/01/20 12:55:43;;;;;;;2.30;1.67;;;5.70;99.90;;;;;;6343534;22;20033;-75
2023/01/20 12:58:32;;;;;;;4.07;1.83;;;5.80;99.90;;;;;;6321526;22;20497;-76
2023/01/20 13:01:15;;;;;;;5.57;2.33;;;5.80;99.90;;;;;;6342978;22;20003;-76
2023/01/20 13:03:43;;;;;;;2.80;2.00;;;5.90;99.90;;;;;;6313718;22;20011;-75
2023/01/20 13:06:27;;;;;;;3.45;2.15;;;5.90;99.90;;;;;;6315178;22;20002;-76
2023/01/20 13:09:25;;;;;;;2.25;1.80;;;6.00;99.90;;;;;;6343749;22;20005;-74
2023/01/20 13:12:09;;;;;;;3.08;1.98;;;6.10;99.90;;;;;;6316352;22;20067;-74
2023/01/20 13:14:46;;;;;;;2.88;2.15;;;6.10;99.90;;;;;;6342080;22;20068;-74
2023/01/20 13:17:24;;;;;;;3.03;2.08;;;6.10;99.90;;;;;;6314402;22;20002;-75
2023/01/20 13:19:55;;;;;;;3.25;2.10;;;6.10;99.90;;;;;;6342736;22;20003;-75
2023/01/20 13:22:23;;;;;;;4.57;2.10;;;6.10;99.90;;;;;;6342741;22;20313;-76
2023/01/20 13:24:57;;;;;;;2.97;1.65;;;6.10;99.90;;;;;;6342913;22;20051;-76
2023/01/20 13:27:27;;;;;;;2.95;1.55;;;6.20;99.90;;;;;;6343689;22;20093;-75
2023/01/20 13:29:58;;;;;;;4.63;2.13;;;6.20;99.90;;;;;;6343093;22;19999;-78
2023/01/20 13:32:28;;;;;;;3.30;1.73;;;6.20;99.90;;;;;;6314535;22;20003;-79